createdAt,value
2017-06-12T00:01:24.926Z,26.67
2017-06-12T00:03:49.415Z,26.68
2017-06-12T00:06:13.905Z,26.67
2017-06-12T00:08:29.999Z,26.64
2017-06-12T00:10:54.596Z,26.49
2017-06-12T00:13:19.192Z,26.41
2017-06-12T00:15:35.286Z,26.37
2017-06-12T00:17:59.776Z,26.44
2017-06-12T00:20:15.871Z,26.45
2017-06-12T00:22:40.364Z,26.37
2017-06-12T00:24:41.945Z,26.64
2017-06-12T00:26:58.107Z,26.59
2017-06-12T00:29:14.204Z,26.55
2017-06-12T00:31:38.697Z,26.44
2017-06-12T00:34:03.189Z,26.29
2017-06-12T00:36:10.783Z,26.22
2017-06-12T00:38:35.275Z,26.04
2017-06-12T00:40:59.770Z,26.18
2017-06-12T00:43:24.258Z,26.19
2017-06-12T00:45:48.749Z,26.18
2017-06-12T00:48:13.244Z,26.26
2017-06-12T00:50:29.342Z,26.22
2017-06-12T00:52:53.825Z,26.37
2017-06-12T00:54:55.304Z,26.39
2017-06-12T00:57:19.874Z,26.26
2017-06-12T00:59:44.371Z,26.18
2017-06-12T01:01:45.833Z,26.19
2017-06-12T01:04:10.413Z,26.19
2017-06-12T01:06:26.402Z,26.03
2017-06-12T01:08:42.399Z,25.99
2017-06-12T01:10:52.430Z,26.04
2017-06-12T01:13:08.436Z,26.24
2017-06-12T01:15:32.930Z,26.11
2017-06-12T01:17:57.319Z,26.19
2017-06-12T01:20:21.711Z,26.18
2017-06-12T01:22:46.098Z,26.03
2017-06-12T01:25:10.593Z,26.16
2017-06-12T01:27:18.184Z,26.29
2017-06-12T01:29:42.679Z,26.34
2017-06-12T01:32:07.168Z,26.41
2017-06-12T01:34:31.659Z,26.48
2017-06-12T01:36:56.150Z,26.36
2017-06-12T01:39:20.645Z,26.37
2017-06-12T01:41:45.137Z,26.48
2017-06-12T01:44:09.623Z,26.52
2017-06-12T01:46:34.117Z,26.45
2017-06-12T01:48:58.607Z,26.36
2017-06-12T01:51:23.106Z,26.42
2017-06-12T01:53:47.593Z,26.45
2017-06-12T01:56:12.086Z,26.42
2017-06-12T01:58:13.550Z,26.45
2017-06-12T02:00:38.030Z,26.26
2017-06-12T02:03:02.519Z,26.41
2017-06-12T02:05:27.011Z,26.37
2017-06-12T02:07:51.509Z,26.22
2017-06-12T02:10:07.494Z,26.23
2017-06-12T02:12:23.486Z,26.27
2017-06-12T02:14:47.980Z,26.29
2017-06-12T02:17:12.471Z,26.3
2017-06-12T02:19:22.503Z,26.27
2017-06-12T02:21:47.013Z,26.31
2017-06-12T02:24:11.503Z,26.15
2017-06-12T02:26:27.501Z,26.11
2017-06-12T02:28:43.590Z,26.29
2017-06-12T02:31:08.080Z,26.3
2017-06-12T02:33:32.575Z,26.39
2017-06-12T02:35:57.067Z,26.06
2017-06-12T02:38:21.560Z,26.04
2017-06-12T02:40:37.550Z,26.06
2017-06-12T02:43:02.038Z,26.04
2017-06-12T02:45:26.534Z,26.03
2017-06-12T02:47:51.028Z,25.96
2017-06-12T02:50:15.518Z,26.08
2017-06-12T02:52:40.005Z,26.22
2017-06-12T02:55:04.499Z,26.06
2017-06-12T02:57:28.988Z,26.04
2017-06-12T02:59:53.484Z,25.95
2017-06-12T03:02:10.242Z,25.98
2017-06-12T03:04:34.787Z,26.04
2017-06-12T03:06:50.881Z,26.07
2017-06-12T03:09:06.872Z,25.77
2017-06-12T03:11:08.866Z,25.95
2017-06-12T03:13:33.430Z,26.18
2017-06-12T03:15:57.921Z,26.31
2017-06-12T03:18:22.410Z,26.16
2017-06-12T03:20:46.907Z,25.98
2017-06-12T03:23:02.900Z,26.08
2017-06-12T03:25:27.389Z,26.19
2017-06-12T03:27:51.883Z,26.03
2017-06-12T03:30:16.372Z,26.1
2017-06-12T03:32:40.864Z,25.85
2017-06-12T03:35:05.357Z,25.83
2017-06-12T03:37:29.848Z,25.83
2017-06-12T03:39:45.838Z,25.91
2017-06-12T03:42:01.826Z,26.07
2017-06-12T03:44:26.323Z,26.06
2017-06-12T03:46:50.813Z,25.93
2017-06-12T03:49:15.306Z,25.74
2017-06-12T03:51:39.795Z,26.06
2017-06-12T03:54:04.287Z,26.22
2017-06-12T03:56:20.282Z,26.19
2017-06-12T03:58:36.271Z,26.31
2017-06-12T04:01:00.762Z,26.39
2017-06-12T04:03:16.756Z,26.27
2017-06-12T04:05:41.248Z,26.13
2017-06-12T04:08:05.739Z,26.23
2017-06-12T04:10:21.832Z,26.18
2017-06-12T04:12:46.328Z,26.22
2017-06-12T04:15:10.818Z,26.3
2017-06-12T04:17:12.277Z,26.16
2017-06-12T04:19:36.862Z,26.36
2017-06-12T04:21:44.458Z,26.08
2017-06-12T04:24:00.446Z,26.23
2017-06-12T04:26:24.941Z,26.06
2017-06-12T04:28:49.433Z,26.18
2017-06-12T04:31:13.921Z,26.33
2017-06-12T04:33:38.415Z,26.19
2017-06-12T04:36:02.908Z,26.23
2017-06-12T04:38:04.897Z,26.04
2017-06-12T04:40:29.362Z,25.89
2017-06-12T04:42:53.852Z,26.07
2017-06-12T04:45:18.346Z,26.01
2017-06-12T04:47:42.836Z,26.04
2017-06-12T04:50:07.326Z,26.23
2017-06-12T04:52:17.362Z,26.23
2017-06-12T04:54:33.373Z,26.18
2017-06-12T04:56:49.367Z,25.96
2017-06-12T04:58:50.861Z,26.06
2017-06-12T05:01:06.912Z,26.51
2017-06-12T05:03:31.399Z,26.74
2017-06-12T05:05:47.395Z,28.94
2017-06-12T05:08:03.486Z,27.86
2017-06-12T05:10:28.083Z,27.45
2017-06-12T05:12:44.278Z,27.19
2017-06-12T05:15:08.875Z,27.13
2017-06-12T05:17:25.072Z,27.16
2017-06-12T05:19:49.668Z,27.34
2017-06-12T05:22:14.258Z,27.15
2017-06-12T05:24:38.852Z,27.07
2017-06-12T05:27:03.444Z,26.89
2017-06-12T05:29:28.044Z,26.97
2017-06-12T05:31:52.639Z,26.89
2017-06-12T05:34:17.230Z,26.83
2017-06-12T05:36:33.324Z,26.79
2017-06-12T05:38:57.919Z,26.81
2017-06-12T05:41:22.512Z,27.2
2017-06-12T05:43:47.104Z,27.29
2017-06-12T05:46:11.698Z,27.98
2017-06-12T05:48:27.892Z,29.5
2017-06-12T05:50:52.597Z,30.38
2017-06-12T05:53:17.418Z,29.59
2017-06-12T05:55:42.308Z,29.18
2017-06-12T05:57:52.954Z,28.86
2017-06-12T06:00:17.750Z,28.87
2017-06-12T06:02:34.119Z,28.41
2017-06-12T06:04:58.858Z,28.74
2017-06-12T06:07:23.656Z,28.13
2017-06-12T06:09:48.456Z,28.01
2017-06-12T06:12:13.256Z,27.61
2017-06-12T06:14:29.452Z,26.89
2017-06-12T06:16:54.146Z,27.29
2017-06-12T06:19:10.345Z,27.58
2017-06-12T06:21:26.541Z,27.79
2017-06-12T06:23:42.737Z,27.88
2017-06-12T06:26:07.437Z,27.58
2017-06-12T06:28:32.031Z,27.76
2017-06-12T06:30:56.724Z,27.75
2017-06-12T06:33:12.922Z,27.91
2017-06-12T06:35:15.030Z,28.53
2017-06-12T06:37:39.786Z,28.78
2017-06-12T06:40:04.486Z,28.19
2017-06-12T06:42:29.180Z,28.33
2017-06-12T06:44:45.376Z,27.28
2017-06-12T06:47:10.093Z,27.33
2017-06-12T06:49:34.764Z,26.88
2017-06-12T06:51:59.465Z,26.93
2017-06-12T06:54:00.979Z,27.3
2017-06-12T06:56:17.216Z,27.45
2017-06-12T06:58:41.813Z,26.98
2017-06-12T07:01:06.401Z,26.96
2017-06-12T07:03:22.601Z,26.68
2017-06-12T07:05:47.195Z,26.83
2017-06-12T07:07:57.264Z,26.83
2017-06-12T07:10:21.950Z,26.81
2017-06-12T07:12:46.537Z,27.13
2017-06-12T07:15:11.142Z,26.88
2017-06-12T07:17:27.229Z,26.51
2017-06-12T07:19:43.323Z,26.89
2017-06-12T07:21:59.414Z,27.22
2017-06-12T07:24:24.016Z,27.01
2017-06-12T07:26:48.603Z,26.92
2017-06-12T07:29:13.308Z,27.01
2017-06-12T15:57:56.479Z,28.3
2017-06-12T16:00:21.141Z,28.47
2017-06-12T16:02:37.367Z,28.08
2017-06-12T16:05:02.060Z,28.15
2017-06-12T16:07:26.754Z,28.35
2017-06-12T16:09:51.455Z,28.33
2017-06-12T16:12:16.149Z,28.12
2017-06-12T16:14:40.949Z,28.2
2017-06-12T16:17:05.649Z,28.1
2017-06-12T16:19:30.344Z,28.3
2017-06-12T16:21:46.526Z,28.28
2017-06-12T16:24:02.838Z,28.56
2017-06-12T16:26:27.530Z,28.37
2017-06-12T16:28:52.230Z,28.18
2017-06-12T16:31:16.932Z,28.41
2017-06-12T16:33:41.621Z,28.27
2017-06-12T16:36:06.323Z,28.31
2017-06-12T16:38:22.655Z,28.22
2017-06-12T16:40:47.314Z,28.09
2017-06-12T16:43:12.112Z,28.19
2017-06-12T16:45:28.412Z,27.91
2017-06-12T16:47:53.155Z,28.01
2017-06-12T16:50:17.813Z,28.15
2017-06-12T16:52:34.008Z,27.97
2017-06-12T16:54:58.700Z,28.3
2017-06-12T16:57:23.395Z,28.22
2017-06-12T16:59:48.098Z,28.23
2017-06-12T17:02:12.786Z,27.91
2017-06-12T17:04:37.485Z,28.19
2017-06-12T17:06:53.786Z,28.03
2017-06-12T17:09:18.481Z,28
2017-06-12T17:11:34.681Z,27.9
2017-06-12T17:13:59.374Z,27.91
2017-06-12T17:16:15.558Z,27.83
2017-06-12T17:18:40.270Z,27.82
2017-06-12T17:21:04.866Z,28
2017-06-12T17:23:29.566Z,27.98
2017-06-12T17:25:54.257Z,27.85
2017-06-12T17:28:18.950Z,27.37
2017-06-12T17:30:43.652Z,27.26
2017-06-12T17:33:08.345Z,27.45
2017-06-12T17:35:33.041Z,27.19
2017-06-12T17:37:35.074Z,27.15
2017-06-12T17:39:59.707Z,27.4
2017-06-12T17:42:24.308Z,27.13
2017-06-12T17:44:48.878Z,27.15
2017-06-12T17:47:04.979Z,27.08
2017-06-12T17:49:29.563Z,27
2017-06-12T17:51:31.569Z,27.04
2017-06-12T17:53:56.159Z,27
2017-06-12T17:56:12.240Z,26.92
2017-06-12T17:58:36.822Z,26.98
2017-06-12T18:01:01.420Z,26.98
2017-06-12T18:03:26.010Z,26.91
2017-06-12T18:05:27.615Z,27.08
2017-06-12T18:07:43.760Z,26.97
2017-06-12T18:10:08.359Z,26.91
2017-06-12T18:12:33.264Z,26.96
2017-06-12T18:14:57.893Z,27.01
2017-06-12T18:17:22.547Z,26.88
2017-06-12T18:19:47.132Z,26.49
2017-06-12T18:22:11.738Z,26.6
2017-06-12T18:24:36.333Z,26.52
2017-06-12T18:26:52.430Z,26.59
2017-06-12T18:29:08.519Z,26.46
2017-06-12T18:31:33.116Z,26.41
2017-06-12T18:33:57.711Z,26.29
2017-06-12T18:36:13.799Z,26.22
2017-06-12T18:38:38.396Z,26.3
2017-06-12T18:41:02.989Z,26.19
2017-06-12T18:43:27.584Z,26.23
2017-06-12T18:45:43.680Z,26.27
2017-06-12T18:48:08.174Z,26.18
2017-06-12T18:50:32.763Z,26.23
2017-06-12T18:52:48.861Z,26.04
2017-06-12T18:55:13.457Z,26.18
2017-06-12T18:57:38.047Z,26.19
2017-06-12T19:00:02.541Z,25.95
2017-06-12T19:02:27.032Z,26.04
2017-06-12T19:04:43.127Z,25.83
2017-06-12T19:07:07.618Z,25.76
2017-06-12T19:09:32.111Z,25.73
2017-06-12T19:11:56.498Z,25.66
2017-06-12T19:14:20.986Z,25.67
2017-06-12T19:16:45.480Z,25.52
2017-06-12T19:19:01.473Z,25.55
2017-06-12T19:21:17.463Z,25.43
2017-06-12T19:23:41.946Z,25.26
2017-06-12T19:26:06.344Z,25.26
2017-06-12T19:28:30.824Z,25.24
2017-06-12T19:30:46.833Z,25.24
2017-06-12T19:33:11.342Z,25.3
2017-06-12T19:35:27.318Z,25.19
2017-06-12T19:37:51.809Z,25.15
2017-06-12T19:40:07.799Z,25.09
2017-06-12T19:42:32.202Z,25.01
2017-06-12T19:44:56.569Z,24.89
2017-06-12T19:47:20.968Z,24.82
2017-06-12T19:49:45.347Z,24.68
2017-06-12T19:52:09.745Z,24.71
2017-06-12T19:54:25.740Z,24.63
2017-06-12T19:56:50.128Z,24.53
2017-06-12T19:59:14.513Z,24.47
2017-06-12T20:01:25.021Z,24.47
2017-06-12T20:03:49.471Z,24.44
2017-06-12T20:06:13.778Z,24.31
2017-06-12T20:08:38.144Z,24.4
2017-06-12T20:11:02.532Z,24.22
2017-06-12T20:13:26.922Z,24.25
2017-06-12T20:15:51.316Z,24.06
2017-06-12T20:18:07.204Z,23.96
2017-06-12T20:20:31.588Z,24.11
2017-06-12T20:22:55.896Z,24.06
2017-06-12T20:25:11.768Z,24.03
2017-06-12T20:27:13.986Z,24
2017-06-12T20:29:38.427Z,23.92
2017-06-12T20:32:02.816Z,23.99
2017-06-12T20:34:27.210Z,23.77
2017-06-12T20:36:56.101Z,23.62
2017-06-12T20:39:20.494Z,23.59
2017-06-12T20:41:44.776Z,23.26
2017-06-12T20:44:00.666Z,23.49
2017-06-12T20:46:24.955Z,23.29
2017-06-12T20:48:49.242Z,23.25
2017-06-12T20:51:13.535Z,23.2
2017-06-12T20:53:37.916Z,23.26
2017-06-12T20:55:53.807Z,23.28
2017-06-12T20:58:18.104Z,23.16
2017-06-12T21:00:42.376Z,23.17
2017-06-12T21:03:06.668Z,23.11
2017-06-12T21:05:30.956Z,23.07
2017-06-12T21:07:55.231Z,23.26
2017-06-12T21:10:11.034Z,22.89
2017-06-12T21:12:18.421Z,23.14
2017-06-12T21:14:34.308Z,23.02
2017-06-12T21:16:50.096Z,22.86
2017-06-12T21:19:14.385Z,22.86
2017-06-12T21:21:38.670Z,22.76
2017-06-12T21:24:02.958Z,22.81
2017-06-12T21:26:27.249Z,22.96
2017-06-12T21:28:37.215Z,23.13
2017-06-12T21:31:01.577Z,23.11
2017-06-12T21:33:25.871Z,22.91
2017-06-12T21:35:50.157Z,22.93
2017-06-12T21:38:14.440Z,22.78
2017-06-12T21:40:38.735Z,22.8
2017-06-12T21:43:03.017Z,22.51
2017-06-12T21:45:27.303Z,22.52
2017-06-12T21:47:20.280Z,22.62
2017-06-12T21:49:44.548Z,22.52
2017-06-12T21:52:08.832Z,22.52
2017-06-12T21:54:33.015Z,22.07
2017-06-12T21:56:57.301Z,22.25
2017-06-12T21:59:21.482Z,22.23
2017-06-12T22:01:45.668Z,22.15
2017-06-12T22:04:01.356Z,22.21
2017-06-12T22:06:25.538Z,22.18
2017-06-12T22:08:49.727Z,22.25
2017-06-12T22:11:13.905Z,22.18
2017-06-12T22:13:38.024Z,22.14
2017-06-12T22:16:02.276Z,22.1
2017-06-12T22:18:26.460Z,22
2017-06-12T22:20:50.644Z,21.99
2017-06-12T22:23:14.827Z,21.84
2017-06-12T22:25:39.013Z,21.85
2017-06-12T22:27:54.698Z,21.85
2017-06-12T22:30:10.382Z,21.74
2017-06-12T22:32:34.576Z,21.62
2017-06-12T22:34:58.718Z,21.65
2017-06-12T22:37:22.938Z,21.6
2017-06-12T22:39:47.121Z,21.65
2017-06-12T22:42:11.305Z,21.5
2017-06-12T22:44:35.491Z,21.58
2017-06-12T22:46:59.672Z,21.65
2017-06-12T22:49:23.859Z,21.63
2017-06-12T22:51:39.546Z,21.75
2017-06-12T22:54:03.728Z,21.65
2017-06-12T22:56:27.809Z,21.58
2017-06-12T22:58:37.732Z,21.4
2017-06-12T23:01:01.944Z,21.4
2017-06-12T23:03:26.127Z,21.53
2017-06-12T23:05:27.508Z,21.75
2017-06-12T23:07:28.962Z,21.7
2017-06-12T23:09:44.714Z,21.51
2017-06-12T23:12:08.898Z,21.58
2017-06-12T23:14:24.583Z,21.65
2017-06-12T23:16:48.666Z,21.66
2017-06-12T23:19:12.850Z,21.53
2017-06-12T23:21:37.034Z,21.68
2017-06-12T23:23:52.721Z,21.7
2017-06-12T23:26:16.904Z,21.58
2017-06-12T23:28:41.093Z,21.68
2017-06-12T23:31:05.173Z,21.77
2017-06-12T23:33:20.853Z,21.66
2017-06-12T23:35:45.042Z,21.58
2017-06-12T23:37:55.020Z,21.45
2017-06-12T23:40:19.173Z,21.6
2017-06-12T23:42:43.359Z,21.63
2017-06-12T23:44:59.049Z,21.48
2017-06-12T23:47:23.220Z,21.54
2017-06-12T23:49:38.904Z,21.54
2017-06-12T23:52:03.094Z,21.47
2017-06-12T23:54:18.782Z,21.48
2017-06-12T23:56:34.469Z,21.54
2017-06-12T23:58:58.544Z,21.51
